Archival Weather

Half Moon Bay

Half Moon Bay, California (KHAF)

Report from: Saturday, September 30, 2023 7:35 AM PDT
Current time: Tuesday, July 16, 2024 9:09 AM PDT

Current weather – Weather history – Daily summaries
Weather forecast

Present weatherMist
Temperature14.0°C (57.2°F)
Dew point12.0°C (53.6°F)
Winds 12 kts (6.2 m/s, 13.8 mph) Northwest (320°)
Wind gusts 19 kts (9.8 m/s, 21.9 mph)
Visibility4 mi. (6.4 km)
Clouds Ceiling: Overcast 1,500 ft. (457 m)
Altimeter29.80 in.Hg (1009 mB)
Relative humidity88 %
Density altitude217 ft. (66 m)
Remarks Fully automated report
Automated weather observing station with precipitation discriminator
Flight conditions Marginal Visual Meteorological Conditions
Raw dataKHAF 301435Z AUTO 32012G19KT 4SM BR OVC015 14/12 A2980 RMK AO2
An error has occurred. This application may no longer respond until reloaded. Reload 🗙